Time;durP1;ratioP1;P1;durP2;ratioP2;P2;SDS_P1;SDS_P2;PMS_P1;PMS_P2;Temp;Humidity;BMP_temperature;BMP_pressure;BME280_temperature;BME280_humidity;BME280_pressure;Samples;Min_cycle;Max_cycle;Signal;HPM_P1;HPM_P2
2023/11/25 00:00:06;;;;;;;6.35;2.78;;;;;;;13.19;54.18;92738.56;4837479;29;20033;-73
2023/11/25 00:02:33;;;;;;;8.55;2.35;;;;;;;13.13;54.20;92726.78;4853338;29;20118;-73
2023/11/25 00:04:58;;;;;;;5.85;1.98;;;;;;;13.12;54.04;92722.50;4868238;29;20058;-72
2023/11/25 00:07:23;;;;;;;6.57;1.65;;;;;;;13.13;53.99;92718.50;4867335;29;20565;-73
2023/11/25 00:09:49;;;;;;;5.15;1.80;;;;;;;13.10;53.93;92722.28;4837481;29;20052;-73
2023/11/25 00:12:14;;;;;;;12.45;2.17;;;;;;;13.15;54.09;92718.00;4836514;29;20025;-74
2023/11/25 00:14:41;;;;;;;7.95;2.60;;;;;;;13.18;53.98;92714.22;4868541;29;20025;-73
2023/11/25 00:17:07;;;;;;;6.00;1.95;;;;;;;13.11;54.10;92698.94;4853420;29;20022;-73
2023/11/25 00:19:32;;;;;;;6.18;1.70;;;;;;;13.13;54.10;92699.19;4867683;29;20118;-72
2023/11/25 00:21:58;;;;;;;8.32;1.98;;;;;;;13.18;54.03;92701.16;4837059;29;20060;-73
2023/11/25 00:24:23;;;;;;;4.50;2.45;;;;;;;13.12;53.98;92697.69;4836344;29;20022;-73
2023/11/25 00:26:48;;;;;;;8.63;2.33;;;;;;;13.17;54.09;92707.94;4853877;29;20398;-72
2023/11/25 00:29:15;;;;;;;6.93;2.22;;;;;;;13.18;53.95;92705.94;4866744;29;20046;-74
2023/11/25 00:31:41;;;;;;;7.88;2.05;;;;;;;13.17;54.28;92693.41;4837133;29;20058;-72
2023/11/25 00:34:06;;;;;;;7.63;1.80;;;;;;;13.20;54.47;92689.66;4852862;29;20029;-73
2023/11/25 00:36:31;;;;;;;11.50;2.45;;;;;;;13.22;54.20;92685.13;4836741;29;20033;-73
2023/11/25 00:38:59;;;;;;;5.20;1.92;;;;;;;13.17;54.57;92691.38;4836816;29;20534;-73
2023/11/25 00:41:25;;;;;;;4.72;2.03;;;;;;;13.18;54.23;92670.06;4853039;29;20041;-73
2023/11/25 00:43:51;;;;;;;6.70;1.73;;;;;;;13.18;54.39;92661.78;4868004;29;20037;-73
2023/11/25 00:46:17;;;;;;;7.82;1.80;;;;;;;13.16;54.43;92670.59;4866819;29;20086;-71
2023/11/25 00:48:43;;;;;;;3.70;1.70;;;;;;;13.12;54.38;92667.34;4854283;29;20034;-73
2023/11/25 00:51:09;;;;;;;4.68;1.67;;;;;;;13.14;54.53;92662.09;4854810;29;20147;-74
2023/11/25 00:53:34;;;;;;;4.68;2.00;;;;;;;13.16;54.69;92653.28;4871652;29;20081;-71
2023/11/25 00:56:00;;;;;;;5.07;2.42;;;;;;;13.20;54.67;92665.56;4870637;29;20515;-72
2023/11/25 00:58:25;;;;;;;5.68;2.05;;;;;;;13.14;54.97;92653.81;4870752;29;20150;-72
2023/11/25 01:00:52;;;;;;;3.15;1.50;;;;;;;13.03;55.34;92646.31;4857056;29;20037;-72
2023/11/25 01:03:17;;;;;;;3.35;1.60;;;;;;;13.12;55.50;92650.03;4855880;29;20026;-73
2023/11/25 01:05:42;;;;;;;8.15;2.00;;;;;;;13.08;56.09;92663.38;4857387;29;20092;-73
2023/11/25 01:08:08;;;;;;;8.32;2.10;;;;;;;13.03;56.97;92659.38;4855833;29;20429;-72
2023/11/25 01:10:34;;;;;;;6.13;1.80;;;;;;;13.01;57.62;92650.84;4857538;29;20022;-72
2023/11/25 01:13:00;;;;;;;2.60;1.52;;;;;;;12.82;58.70;92647.16;4870254;29;20109;-72
2023/11/25 01:15:25;;;;;;;4.70;1.63;;;;;;;12.81;58.84;92646.41;4856713;29;20753;-72
2023/11/25 01:17:52;;;;;;;3.55;1.75;;;;;;;12.81;59.55;92640.13;4856735;29;20025;-73
2023/11/25 01:20:17;;;;;;;4.80;1.80;;;;;;;12.66;60.06;92634.91;4855842;29;20033;-72
2023/11/25 01:22:45;;;;;;;7.15;2.05;;;;;;;12.66;60.34;92634.91;4871114;29;20078;-72
2023/11/25 01:25:11;;;;;;;3.10;1.85;;;;;;;12.68;60.30;92624.91;4869327;29;20526;-71
2023/11/25 01:27:36;;;;;;;7.78;2.80;;;;;;;12.58;60.79;92612.66;4856728;29;20050;-72
2023/11/25 01:30:04;;;;;;;4.07;1.85;;;;;;;12.66;60.78;92621.88;4854149;29;20440;-72
2023/11/25 01:32:30;;;;;;;7.55;1.85;;;;;;;12.62;60.53;92615.91;4855185;29;20124;-73
2023/11/25 01:34:55;;;;;;;3.17;1.70;;;;;;;12.65;60.82;92612.13;4870260;29;20096;-72
2023/11/25 01:37:23;;;;;;;9.88;2.83;;;;;;;12.67;60.98;92608.84;4855932;29;20533;-73
2023/11/25 01:39:49;;;;;;;8.13;1.73;;;;;;;12.65;61.00;92608.63;4856675;29;20029;-73
2023/11/25 01:42:14;;;;;;;5.43;1.88;;;;;;;12.68;61.22;92604.84;4869855;29;20120;-73
2023/11/25 01:44:40;;;;;;;2.38;1.50;;;;;;;12.71;61.24;92595.56;4840051;29;20064;-73
2023/11/25 01:47:05;;;;;;;6.05;2.08;;;;;;;12.79;61.46;92604.03;4855151;29;20052;-73
2023/11/25 01:49:31;;;;;;;2.50;1.50;;;;;;;12.79;61.79;92593.78;4856553;29;20045;-72
2023/11/25 01:51:57;;;;;;;3.00;1.65;;;;;;;12.79;61.95;92587.50;4854381;29;20113;-72
2023/11/25 01:54:23;;;;;;;3.17;1.58;;;;;;;12.71;61.24;92590.78;4869978;29;20120;-72
2023/11/25 01:56:53;;;;;;;4.32;1.70;;;;;;;12.68;60.93;92594.56;4854070;29;20049;-71
2023/11/25 01:59:20;;;;;;;2.67;1.80;;;;;;;12.53;61.38;92593.38;4869304;29;20449;-71
2023/11/25 02:01:45;;;;;;;5.18;1.40;;;;;;;12.40;61.29;92594.66;4869409;29;20126;-73
2023/11/25 02:04:10;;;;;;;2.60;1.10;;;;;;;12.28;61.17;92595.94;4868944;29;20112;-72
2023/11/25 02:06:36;;;;;;;1.33;1.00;;;;;;;12.04;61.15;92598.47;4870514;29;20416;-72
2023/11/25 02:09:03;;;;;;;1.17;0.82;;;;;;;11.74;62.21;92587.94;4838445;29;20069;-72
2023/11/25 02:11:28;;;;;;;1.63;0.93;;;;;;;11.54;63.01;92602.72;4855881;29;20130;-73
2023/11/25 02:13:54;;;;;;;1.13;0.82;;;;;;;11.34;63.57;92594.69;4838916;29;20143;-72
2023/11/25 02:16:20;;;;;;;1.77;0.80;;;;;;;11.16;63.84;92585.66;4853858;29;20400;-73
2023/11/25 02:18:45;;;;;;;1.33;1.05;;;;;;;11.04;64.26;92594.38;4855789;29;20041;-72
2023/11/25 02:21:11;;;;;;;1.00;0.55;;;;;;;10.88;64.84;92568.34;4854509;29;20052;-72
2023/11/25 02:23:36;;;;;;;2.47;0.90;;;;;;;10.74;65.31;92577.56;4870089;29;20033;-71
2023/11/25 02:26:02;;;;;;;1.80;0.70;;;;;;;10.64;65.69;92585.25;4854736;29;20291;-72
2023/11/25 02:28:28;;;;;;;1.20;0.80;;;;;;;10.51;66.11;92602.19;4869048;29;20516;-72
2023/11/25 02:30:53;;;;;;;1.30;0.70;;;;;;;10.39;66.49;92602.63;4855044;29;20033;-73
2023/11/25 02:33:21;;;;;;;3.40;1.30;;;;;;;10.33;66.79;92603.34;4869299;29;20026;-72
2023/11/25 02:35:47;;;;;;;1.40;0.50;;;;;;;10.27;66.18;92599.09;4855441;29;20120;-74
2023/11/25 02:38:14;;;;;;;1.73;0.60;;;;;;;10.18;66.19;92577.28;4854732;29;20488;-73
2023/11/25 02:40:43;;;;;;;2.80;0.68;;;;;;;10.06;66.79;92566.22;4869686;29;20037;-73
2023/11/25 02:43:11;;;;;;;1.85;0.90;;;;;;;9.85;67.21;92571.09;4868502;29;20029;-72
2023/11/25 02:45:37;;;;;;;1.20;0.73;;;;;;;9.65;68.15;92568.47;4869321;29;20033;-72
2023/11/25 02:48:04;;;;;;;3.22;0.90;;;;;;;9.60;68.64;92588.38;4868539;29;20418;-72
2023/11/25 02:50:29;;;;;;;1.92;0.80;;;;;;;9.55;68.58;92589.09;4853032;29;20045;-72
2023/11/25 02:52:55;;;;;;;1.88;1.13;;;;;;;9.44;68.62;92589.00;4869073;29;20491;-74
2023/11/25 02:55:20;;;;;;;1.85;0.60;;;;;;;9.34;68.80;92580.19;4868250;29;20029;-72
2023/11/25 02:57:46;;;;;;;1.75;0.60;;;;;;;9.26;69.04;92582.59;4855706;29;20033;-74
2023/11/25 03:00:27;;;;;;;0.80;0.60;;;;;;;9.26;68.31;92585.34;4854110;29;20041;-73
2023/11/25 03:03:16;;;;;;;1.23;0.60;;;;;;;8.94;69.25;92575.56;4855625;29;20136;-73
2023/11/25 03:05:45;;;;;;;2.20;0.45;;;;;;;8.80;69.00;92573.69;4850715;29;20440;-73
2023/11/25 03:08:12;;;;;;;0.73;0.45;;;;;;;8.55;69.92;92575.16;4852686;29;20074;-73
2023/11/25 03:10:41;;;;;;;1.38;0.52;;;;;;;8.54;70.64;92599.03;4868850;29;20119;-74
2023/11/25 03:13:07;;;;;;;1.27;0.50;;;;;;;8.52;70.43;92593.31;4852406;29;20501;-73
2023/11/25 03:15:33;;;;;;;2.03;0.77;;;;;;;8.41;70.42;92576.75;4838271;29;20040;-73
2023/11/25 03:17:58;;;;;;;0.60;0.50;;;;;;;8.12;71.13;92575.59;4837039;29;20117;-73
2023/11/25 03:20:24;;;;;;;1.52;0.73;;;;;;;8.13;71.70;92577.09;4837955;29;20409;-73
2023/11/25 03:22:49;;;;;;;1.23;0.70;;;;;;;8.05;72.30;92573.28;4837425;29;20450;-71
2023/11/25 03:25:14;;;;;;;3.53;0.70;;;;;;;8.08;72.22;92580.53;4853068;29;20108;-73
2023/11/25 03:27:40;;;;;;;2.40;0.70;;;;;;;8.05;72.27;92586.97;4854049;29;20442;-73
2023/11/25 03:30:07;;;;;;;0.80;0.60;;;;;;;7.95;71.95;92589.06;4867808;29;20109;-73
2023/11/25 03:32:34;;;;;;;1.55;0.82;;;;;;;7.99;72.53;92588.88;4854521;29;20077;-74
2023/11/25 03:35:00;;;;;;;1.13;0.50;;;;;;;8.09;72.03;92595.72;4867270;29;20112;-73
2023/11/25 03:37:25;;;;;;;2.13;0.60;;;;;;;7.98;72.28;92590.84;4853838;29;20104;-72
2023/11/25 03:39:51;;;;;;;1.85;0.68;;;;;;;7.95;72.26;92586.31;4853753;29;20036;-74
2023/11/25 03:42:19;;;;;;;3.42;0.70;;;;;;;7.98;72.20;92584.63;4837832;29;20454;-72
2023/11/25 03:44:46;;;;;;;2.03;0.88;;;;;;;7.89;72.28;92562.88;4853804;29;20133;-73
2023/11/25 03:47:11;;;;;;;1.33;0.85;;;;;;;7.93;71.73;92575.13;4852422;29;20049;-72
2023/11/25 03:49:37;;;;;;;1.85;0.40;;;;;;;8.03;70.93;92592.16;4868315;29;20061;-73
2023/11/25 03:52:02;;;;;;;1.08;0.70;;;;;;;7.96;71.44;92611.69;4867422;29;20052;-74
2023/11/25 03:54:28;;;;;;;0.63;0.60;;;;;;;7.96;70.93;92609.72;4868863;29;20154;-73
2023/11/25 03:56:54;;;;;;;2.03;0.80;;;;;;;7.95;70.85;92600.00;4867034;29;20057;-74
2023/11/25 03:59:19;;;;;;;2.08;1.10;;;;;;;7.92;70.83;92598.22;4868610;29;20105;-72
2023/11/25 04:01:45;;;;;;;2.50;1.55;;;;;;;7.87;70.96;92596.16;4852106;29;20488;-73
2023/11/25 04:04:11;;;;;;;2.30;0.82;;;;;;;7.88;70.64;92596.91;4852568;29;20044;-73
2023/11/25 04:06:36;;;;;;;0.85;0.40;;;;;;;7.97;69.84;92589.34;4867950;29;20030;-73
2023/11/25 04:09:02;;;;;;;0.90;0.47;;;;;;;7.90;69.48;92581.53;4867614;29;20029;-72
2023/11/25 04:11:27;;;;;;;0.70;0.50;;;;;;;7.81;70.07;92589.13;4868502;29;20576;-72
2023/11/25 04:13:56;;;;;;;1.65;0.57;;;;;;;7.82;69.73;92593.34;4866948;29;20116;-72
2023/11/25 04:16:22;;;;;;;0.70;0.50;;;;;;;7.77;70.04;92594.03;4837510;29;20021;-72
2023/11/25 04:18:47;;;;;;;0.82;0.50;;;;;;;7.71;70.25;92591.22;4851633;29;20037;-73
2023/11/25 04:21:13;;;;;;;1.95;0.38;;;;;;;7.69;69.89;92591.69;4868053;29;20037;-73
2023/11/25 04:23:38;;;;;;;0.52;0.40;;;;;;;7.72;69.51;92587.25;4867631;29;20029;-73
2023/11/25 04:26:05;;;;;;;0.88;0.50;;;;;;;7.69;69.05;92586.22;4855804;29;20062;-72
2023/11/25 04:28:33;;;;;;;0.28;0.15;;;;;;;7.73;68.12;92583.28;4840666;29;20499;-73
2023/11/25 04:30:59;;;;;;;0.60;0.30;;;;;;;7.66;68.22;92576.22;4824583;29;20132;-73
2023/11/25 04:33:24;;;;;;;0.85;0.38;;;;;;;7.52;68.83;92585.22;4857001;29;20041;-73
2023/11/25 04:35:51;;;;;;;2.10;0.50;;;;;;;7.53;68.38;92591.44;4870673;29;20549;-72
2023/11/25 04:38:17;;;;;;;0.57;0.22;;;;;;;7.52;68.40;92598.88;4871948;29;20029;-72
2023/11/25 04:40:42;;;;;;;0.68;0.45;;;;;;;7.41;68.35;92599.47;4856842;29;20085;-73
2023/11/25 04:43:08;;;;;;;1.52;0.88;;;;;;;7.43;67.81;92604.44;4857251;29;20028;-72
2023/11/25 04:45:34;;;;;;;5.32;2.17;;;;;;;7.37;67.89;92603.59;4855724;29;20041;-72
2023/11/25 04:48:00;;;;;;;0.77;0.40;;;;;;;7.27;68.47;92597.47;4854957;29;20108;-73
2023/11/25 04:50:26;;;;;;;1.85;0.52;;;;;;;7.15;68.65;92602.00;4871881;29;20030;-73
2023/11/25 04:52:52;;;;;;;1.23;0.45;;;;;;;7.10;68.25;92601.91;4854769;29;20029;-73
2023/11/25 04:55:19;;;;;;;1.35;0.80;;;;;;;7.04;68.43;92590.88;4871728;29;20036;-72
2023/11/25 04:57:44;;;;;;;1.52;0.57;;;;;;;6.99;68.37;92602.47;4870154;29;20512;-72
2023/11/25 05:00:11;;;;;;;1.23;0.30;;;;;;;6.97;68.15;92612.34;4840508;29;20033;-72
2023/11/25 05:02:41;;;;;;;0.40;0.30;;;;;;;6.89;68.42;92603.78;4870902;29;20117;-72
2023/11/25 05:05:07;;;;;;;1.33;0.57;;;;;;;6.88;68.00;92602.25;4855193;29;20033;-72
2023/11/25 05:07:33;;;;;;;0.43;0.25;;;;;;;6.87;67.49;92617.16;4871501;29;20060;-72
2023/11/25 05:09:59;;;;;;;0.38;0.30;;;;;;;6.77;67.92;92605.56;4854544;29;20026;-72
2023/11/25 05:12:24;;;;;;;0.70;0.40;;;;;;;6.75;67.20;92601.78;4857358;29;20033;-72
2023/11/25 05:14:50;;;;;;;1.00;0.38;;;;;;;6.67;67.00;92614.28;4870080;29;20033;-73
2023/11/25 05:17:16;;;;;;;0.50;0.30;;;;;;;6.65;66.65;92620.19;4871318;29;20065;-72
2023/11/25 05:19:41;;;;;;;0.30;0.30;;;;;;;6.54;66.67;92617.28;4856551;29;20065;-73
2023/11/25 05:22:07;;;;;;;1.10;0.50;;;;;;;6.34;66.25;92618.63;4856520;29;20490;-73
2023/11/25 05:24:32;;;;;;;0.65;0.30;;;;;;;6.26;66.35;92635.81;4871219;29;20128;-73
2023/11/25 05:26:58;;;;;;;0.43;0.30;;;;;;;6.17;66.62;92636.63;4838900;29;20034;-73
2023/11/25 05:29:23;;;;;;;0.47;0.20;;;;;;;6.08;66.93;92642.16;4856724;29;20511;-74
2023/11/25 05:31:49;;;;;;;0.82;0.50;;;;;;;5.90;66.93;92648.41;4855547;29;20038;-73
2023/11/25 05:34:14;;;;;;;0.22;0.22;;;;;;;5.82;67.36;92647.22;4870923;29;20448;-73
2023/11/25 05:36:39;;;;;;;0.60;0.35;;;;;;;5.75;67.84;92650.31;4869762;29;20037;-73
2023/11/25 05:39:12;;;;;;;0.68;0.40;;;;;;;5.65;67.97;92654.28;4870485;29;20032;-73
2023/11/25 05:41:38;;;;;;;0.40;0.20;;;;;;;5.57;67.48;92654.59;4869804;29;20030;-73
2023/11/25 05:44:07;;;;;;;1.23;0.47;;;;;;;5.52;67.62;92660.69;4869497;29;20044;-72
2023/11/25 05:46:33;;;;;;;0.47;0.32;;;;;;;5.48;67.16;92672.94;4870641;29;20082;-72
2023/11/25 05:48:59;;;;;;;0.63;0.30;;;;;;;5.42;67.01;92672.06;4869292;29;20044;-73
2023/11/25 05:51:32;;;;;;;0.75;0.30;;;;;;;5.34;66.89;92671.63;4870971;29;20404;-73
2023/11/25 05:53:58;;;;;;;;;;;;;;;5.16;66.67;92679.81;4855851;29;20025;-73
2023/11/25 05:56:26;;;;;;;0.57;0.20;;;;;;;5.02;67.06;92689.38;4856215;29;19983;-73
2023/11/25 05:58:52;;;;;;;0.20;0.17;;;;;;;4.82;66.92;92713.56;4855988;29;20037;-73
2023/11/25 06:01:18;;;;;;;0.20;0.20;;;;;;;4.67;67.27;92706.03;4838654;29;20037;-73
2023/11/25 06:03:43;;;;;;;0.32;0.28;;;;;;;4.60;67.88;92708.28;4856366;29;20081;-73
2023/11/25 06:06:10;;;;;;;0.20;0.20;;;;;;;4.47;67.93;92711.91;4853481;29;20112;-73
2023/11/25 06:08:36;;;;;;;0.17;0.17;;;;;;;4.40;67.88;92733.94;4856337;29;20424;-73
2023/11/25 06:11:02;;;;;;;0.70;0.40;;;;;;;4.25;68.26;92736.50;4854744;29;20117;-73
2023/11/25 06:13:28;;;;;;;0.98;0.40;;;;;;;4.28;68.40;92742.22;4870246;29;20086;-73
2023/11/25 06:15:53;;;;;;;0.30;0.22;;;;;;;4.28;68.49;92750.38;4869503;29;20480;-73
2023/11/25 06:18:20;;;;;;;1.27;0.20;;;;;;;4.21;68.31;92754.91;4869321;29;20491;-73
2023/11/25 06:20:47;;;;;;;0.55;0.30;;;;;;;4.18;68.56;92772.09;4839709;29;20080;-74
2023/11/25 06:23:13;;;;;;;0.77;0.40;;;;;;;4.11;68.68;92777.06;4853405;29;20132;-72
2023/11/25 06:25:40;;;;;;;0.73;0.55;;;;;;;4.10;68.14;92761.97;4870195;29;20037;-73
2023/11/25 06:28:06;;;;;;;0.50;0.25;;;;;;;3.97;68.20;92762.81;4854339;29;20037;-73
2023/11/25 06:30:31;;;;;;;2.10;1.15;;;;;;;3.97;68.37;92778.38;4839070;29;20448;-72
2023/11/25 06:32:57;;;;;;;0.75;0.60;;;;;;;3.87;69.00;92790.41;4869182;29;20041;-73
2023/11/25 06:35:23;;;;;;;0.70;0.50;;;;;;;3.92;68.21;92789.84;4853835;29;20045;-72
2023/11/25 06:37:49;;;;;;;0.88;0.40;;;;;;;3.84;68.40;92764.91;4855464;29;20061;-73
2023/11/25 06:40:14;;;;;;;2.15;0.70;;;;;;;3.85;68.19;92766.41;4854727;29;20064;-73
2023/11/25 06:42:41;;;;;;;1.13;0.63;;;;;;;3.86;68.12;92759.75;4838986;29;20038;-73
2023/11/25 06:45:07;;;;;;;0.70;0.50;;;;;;;3.78;68.40;92757.75;4868260;29;20097;-72
2023/11/25 06:47:32;;;;;;;1.33;0.70;;;;;;;3.84;68.73;92775.75;4838520;29;20120;-72
2023/11/25 06:49:57;;;;;;;0.60;0.50;;;;;;;3.68;68.88;92774.00;4854309;29;20112;-73
2023/11/25 06:52:23;;;;;;;1.20;0.70;;;;;;;3.64;69.32;92778.81;4855151;29;20081;-73
2023/11/25 06:54:49;;;;;;;1.83;0.75;;;;;;;3.61;70.03;92781.66;4868847;29;20037;-73
2023/11/25 06:57:15;;;;;;;1.98;1.08;;;;;;;3.59;69.84;92775.91;4822580;29;20440;-72
2023/11/25 06:59:45;;;;;;;1.27;0.85;;;;;;;3.57;70.11;92773.66;4869301;29;20504;-71
2023/11/25 07:02:13;;;;;;;1.27;0.85;;;;;;;3.52;70.17;92787.06;4838055;29;20030;-72
2023/11/25 07:04:39;;;;;;;1.90;0.80;;;;;;;3.49;70.70;92787.91;4869674;29;20523;-72
2023/11/25 07:07:04;;;;;;;1.83;1.13;;;;;;;3.50;70.75;92792.16;4853869;29;20030;-73
2023/11/25 07:09:30;;;;;;;2.47;1.35;;;;;;;3.57;69.87;92781.03;4854942;29;20048;-72
2023/11/25 07:11:56;;;;;;;3.38;1.65;;;;;;;3.58;70.31;92796.13;4854317;29;20610;-73
2023/11/25 07:14:21;;;;;;;2.50;1.73;;;;;;;3.60;70.39;92796.44;4854570;29;20030;-73
2023/11/25 07:16:47;;;;;;;2.42;1.52;;;;;;;3.64;69.79;92797.09;4868837;29;20580;-73
2023/11/25 07:19:13;;;;;;;2.42;1.45;;;;;;;3.66;70.33;92790.00;4837646;29;20052;-73
2023/11/25 07:21:38;;;;;;;2.08;1.40;;;;;;;3.63;69.78;92782.00;4853467;29;20029;-73
2023/11/25 07:24:04;;;;;;;1.33;1.02;;;;;;;3.61;68.94;92781.66;4853700;29;20060;-71
2023/11/25 07:26:30;;;;;;;2.92;1.67;;;;;;;3.52;69.12;92785.09;4855069;29;20117;-73
2023/11/25 07:28:56;;;;;;;3.03;1.38;;;;;;;3.50;69.88;92784.78;4867296;29;20173;-72
2023/11/25 07:31:22;;;;;;;1.40;0.95;;;;;;;3.52;69.76;92782.38;4868511;29;20118;-73
2023/11/25 07:33:47;;;;;;;3.38;1.48;;;;;;;3.43;70.20;92774.91;4868264;29;20481;-73
2023/11/25 07:36:13;;;;;;;2.78;1.30;;;;;;;3.54;70.03;92779.19;4868115;29;20044;-72
2023/11/25 07:38:38;;;;;;;3.80;1.40;;;;;;;3.52;69.75;92776.94;4854282;29;20564;-72
2023/11/25 07:41:05;;;;;;;2.88;1.35;;;;;;;3.55;69.73;92772.56;4852064;29;20071;-73
2023/11/25 07:43:31;;;;;;;4.93;1.98;;;;;;;3.60;69.53;92772.00;4854429;29;20040;-73
2023/11/25 07:45:56;;;;;;;3.15;1.80;;;;;;;3.60;69.42;92772.00;4853403;29;20041;-73
2023/11/25 07:48:22;;;;;;;3.40;2.22;;;;;;;3.54;69.68;92774.53;4837677;29;20437;-72
2023/11/25 07:50:47;;;;;;;2.83;2.00;;;;;;;3.55;69.88;92772.56;4853493;29;20029;-72
2023/11/25 07:53:13;;;;;;;2.90;2.13;;;;;;;3.56;69.61;92761.28;4854105;29;20048;-73
2023/11/25 07:55:39;;;;;;;3.25;2.63;;;;;;;3.56;69.42;92758.56;4867705;29;20041;-73
2023/11/25 07:58:05;;;;;;;3.08;1.73;;;;;;;3.63;68.96;92746.66;4867694;29;20112;-72
2023/11/25 08:00:31;;;;;;;2.38;1.20;;;;;;;3.70;68.65;92758.00;4854079;29;20113;-73
2023/11/25 08:02:58;;;;;;;3.92;2.08;;;;;;;3.73;68.66;92753.66;4851767;29;20038;-72
2023/11/25 08:05:24;;;;;;;3.75;1.75;;;;;;;3.65;68.70;92749.69;4852965;29;20056;-72
2023/11/25 08:07:51;;;;;;;2.55;1.55;;;;;;;3.68;68.65;92751.53;4851717;29;20105;-72
2023/11/25 08:10:16;;;;;;;2.10;1.30;;;;;;;3.69;68.36;92747.59;4853050;29;20057;-72
2023/11/25 08:12:43;;;;;;;2.28;1.30;;;;;;;3.72;68.22;92747.44;4867613;29;20078;-73
2023/11/25 08:15:09;;;;;;;2.33;1.30;;;;;;;3.64;68.63;92754.38;4867501;29;20116;-73
2023/11/25 08:17:36;;;;;;;2.47;1.50;;;;;;;3.56;68.99;92761.28;4853895;29;20108;-73
2023/11/25 08:20:01;;;;;;;2.38;1.25;;;;;;;3.56;68.92;92753.13;4867185;29;20829;-73
2023/11/25 08:22:28;;;;;;;2.92;2.00;;;;;;;3.67;68.66;92763.56;4854376;29;20121;-73
2023/11/25 08:24:56;;;;;;;4.60;2.40;;;;;;;3.67;68.57;92756.19;4853048;29;20040;-72
2023/11/25 08:27:22;;;;;;;5.85;2.10;;;;;;;3.63;68.80;92761.00;4854108;29;20037;-73
2023/11/25 08:29:47;;;;;;;6.57;3.03;;;;;;;3.64;68.63;92753.59;4851656;29;20514;-72
2023/11/25 08:32:13;;;;;;;2.63;1.92;;;;;;;3.63;68.71;92758.28;4853636;29;20069;-72
2023/11/25 08:34:38;;;;;;;4.65;1.35;;;;;;;3.59;68.59;92763.09;4867627;29;20037;-72
2023/11/25 08:37:05;;;;;;;2.13;1.35;;;;;;;3.63;68.55;92757.53;4867277;29;20037;-72
2023/11/25 08:39:32;;;;;;;2.45;0.93;;;;;;;3.59;69.04;92759.63;4837139;29;20029;-73
2023/11/25 08:41:59;;;;;;;1.73;0.98;;;;;;;3.56;68.82;92768.66;4836055;29;20049;-73
2023/11/25 08:44:25;;;;;;;1.55;1.08;;;;;;;3.51;68.82;92770.00;4854467;29;20045;-72
2023/11/25 08:46:51;;;;;;;2.17;1.27;;;;;;;3.49;68.97;92761.50;4852709;29;20065;-73
2023/11/25 08:49:21;;;;;;;2.08;1.15;;;;;;;3.56;69.08;92766.72;4852264;29;20038;-73
2023/11/25 08:51:47;;;;;;;1.35;0.85;;;;;;;3.52;69.22;92763.34;4853133;29;20120;-72
2023/11/25 08:54:20;;;;;;;1.15;0.70;;;;;;;3.59;69.15;92759.63;4836637;29;20820;-73
2023/11/25 08:56:46;;;;;;;2.08;1.00;;;;;;;3.56;69.20;92757.81;4867580;29;20456;-72
2023/11/25 08:59:17;;;;;;;0.82;0.82;;;;;;;3.51;69.17;92766.53;4866860;29;20105;-72
2023/11/25 09:01:43;;;;;;;0.80;0.77;;;;;;;3.57;69.17;92762.03;4867022;29;20058;-72
2023/11/25 09:04:09;;;;;;;1.40;1.00;;;;;;;3.57;69.42;92754.63;4866786;29;20496;-73
2023/11/25 09:06:39;;;;;;;2.50;1.40;;;;;;;3.58;69.35;92758.84;4867643;29;20037;-72
2023/11/25 09:09:07;;;;;;;4.85;2.30;;;;;;;3.57;69.35;92745.72;4866829;29;20081;-72
2023/11/25 09:11:33;;;;;;;2.92;2.05;;;;;;;3.65;69.09;92744.25;4837906;29;20037;-73
2023/11/25 09:13:59;;;;;;;4.18;2.53;;;;;;;3.68;68.90;92740.66;4855411;29;20122;-73
2023/11/25 09:16:25;;;;;;;3.78;2.05;;;;;;;3.64;69.14;92743.50;4869864;29;20061;-73
2023/11/25 09:18:51;;;;;;;6.78;3.25;;;;;;;3.65;69.36;92750.44;4856841;29;20033;-73
2023/11/25 09:21:16;;;;;;;5.93;2.40;;;;;;;3.63;69.39;92743.94;4855575;29;20101;-74
2023/11/25 09:23:43;;;;;;;2.67;1.60;;;;;;;3.73;69.08;92748.22;4856776;29;20057;-73
2023/11/25 09:26:08;;;;;;;3.63;1.42;;;;;;;3.72;68.96;92747.44;4855865;29;20040;-73
2023/11/25 09:28:34;;;;;;;2.15;1.35;;;;;;;3.78;68.92;92749.59;4869786;29;20221;-73
2023/11/25 09:30:59;;;;;;;4.18;1.75;;;;;;;3.75;69.17;92756.69;4856453;29;20044;-73
2023/11/25 09:33:25;;;;;;;4.05;2.00;;;;;;;3.79;68.87;92745.69;4869759;29;20060;-72
2023/11/25 09:35:50;;;;;;;1.98;1.30;;;;;;;3.84;68.58;92743.16;4870628;29;20029;-73
2023/11/25 09:38:15;;;;;;;1.63;1.10;;;;;;;3.77;68.93;92746.13;4853955;29;20034;-71
2023/11/25 09:40:41;;;;;;;1.98;1.10;;;;;;;3.83;68.59;92729.97;4870801;29;20089;-72
2023/11/25 09:43:06;;;;;;;2.30;1.58;;;;;;;3.82;68.44;92729.22;4869404;29;20034;-73
2023/11/25 09:45:32;;;;;;;1.70;1.05;;;;;;;3.77;68.53;92723.63;4870191;29;20030;-73
2023/11/25 09:47:57;;;;;;;3.65;1.77;;;;;;;3.70;68.70;92717.25;4855635;29;20038;-73
2023/11/25 09:50:22;;;;;;;2.63;1.55;;;;;;;3.71;68.87;92728.88;4869726;29;20558;-73
2023/11/25 09:52:50;;;;;;;2.60;1.50;;;;;;;3.70;69.22;92719.97;4870212;29;20032;-72
2023/11/25 09:55:19;;;;;;;1.80;1.45;;;;;;;3.71;68.99;92718.75;4838538;29;20085;-72
2023/11/25 09:57:49;;;;;;;1.98;1.27;;;;;;;3.79;68.64;92723.94;4851760;29;20102;-74
2023/11/25 10:00:21;;;;;;;2.90;1.42;;;;;;;3.79;69.12;92710.34;4835053;29;20051;-72
2023/11/25 10:02:52;;;;;;;2.17;1.40;;;;;;;3.81;68.81;92710.66;4821787;29;20112;-72
2023/11/25 10:05:17;;;;;;;2.15;1.23;;;;;;;3.84;68.55;92698.88;4837160;29;20038;-72
2023/11/25 10:07:43;;;;;;;4.68;2.10;;;;;;;3.83;68.42;92698.13;4836911;29;20037;-72
2023/11/25 10:10:09;;;;;;;3.42;1.63;;;;;;;3.81;68.85;92699.78;4837305;29;20034;-72
2023/11/25 10:12:35;;;;;;;3.00;1.75;;;;;;;3.83;68.70;92700.84;4850059;29;20066;-71
2023/11/25 10:15:01;;;;;;;2.13;1.27;;;;;;;3.79;68.44;92697.53;4851595;29;20069;-73
2023/11/25 10:17:26;;;;;;;1.98;1.50;;;;;;;3.76;68.63;92689.50;4850378;29;20086;-73
2023/11/25 10:20:18;;;;;;;2.67;1.40;;;;;;;3.80;68.76;92687.41;4837345;29;20034;-73
2023/11/25 10:22:57;;;;;;;4.30;2.67;;;;;;;3.91;68.50;92683.06;4833457;29;20520;-72
2023/11/25 10:25:22;;;;;;;5.82;2.28;;;;;;;3.87;68.86;92674.28;4834826;29;20573;-73
2023/11/25 10:27:51;;;;;;;4.07;2.10;;;;;;;3.89;68.79;92677.31;4851185;29;20034;-73
2023/11/25 10:30:16;;;;;;;4.15;2.05;;;;;;;3.92;68.70;92673.69;4834406;29;20036;-72
2023/11/25 10:32:42;;;;;;;3.72;2.25;;;;;;;3.91;68.91;92677.63;4851492;29;20026;-73
2023/11/25 10:35:11;;;;;;;5.78;2.92;;;;;;;4.00;68.76;92672.19;4836278;29;20037;-73
2023/11/25 10:37:39;;;;;;;7.00;3.10;;;;;;;4.12;68.30;92667.84;4850675;29;20038;-72
2023/11/25 10:40:10;;;;;;;5.47;2.63;;;;;;;4.12;68.21;92681.44;4835282;29;20026;-74
2023/11/25 10:42:41;;;;;;;5.95;2.55;;;;;;;4.02;68.50;92671.78;4835990;29;20044;-73
2023/11/25 10:45:13;;;;;;;4.60;2.63;;;;;;;4.13;68.19;92671.31;4850898;29;20030;-72
2023/11/25 10:47:39;;;;;;;5.60;3.77;;;;;;;4.11;68.35;92658.19;4835849;29;20026;-74
2023/11/25 10:50:06;;;;;;;5.93;3.00;;;;;;;4.16;68.11;92638.56;4850721;29;20457;-72
2023/11/25 10:52:32;;;;;;;2.67;2.03;;;;;;;4.14;67.94;92640.22;4819829;29;20117;-73
2023/11/25 10:54:59;;;;;;;4.18;2.20;;;;;;;4.16;68.07;92624.19;4836309;29;20421;-74
2023/11/25 10:57:24;;;;;;;4.80;2.20;;;;;;;4.13;68.28;92611.50;4835706;29;20206;-73
2023/11/25 10:59:59;;;;;;;6.93;3.60;;;;;;;4.09;68.50;92598.06;4868723;29;20041;-73
2023/11/25 11:02:29;;;;;;;4.00;2.80;;;;;;;4.08;68.85;92599.28;4869165;29;20034;-73
2023/11/25 11:05:08;;;;;;;4.32;2.65;;;;;;;4.06;68.81;92598.97;4868079;29;20029;-74
2023/11/25 11:07:37;;;;;;;3.95;2.40;;;;;;;4.11;68.66;92597.59;4838620;29;20073;-73
2023/11/25 11:10:05;;;;;;;5.82;2.95;;;;;;;4.05;68.75;92594.72;4837736;29;20564;-73
2023/11/25 11:12:38;;;;;;;4.40;3.67;;;;;;;4.03;68.77;92583.56;4837637;29;20517;-73
2023/11/25 11:15:06;;;;;;;6.72;3.72;;;;;;;4.00;69.18;92584.44;4854656;29;20040;-73
2023/11/25 11:17:43;;;;;;;8.30;5.00;;;;;;;3.98;69.57;92576.75;4868120;29;20241;-73
2023/11/25 11:20:12;;;;;;;12.52;6.78;;;;;;;4.05;69.25;92575.69;4869318;29;20065;-73
2023/11/25 11:22:41;;;;;;;8.20;5.03;;;;;;;4.07;69.43;92572.53;4867953;29;20041;-73
2023/11/25 11:25:19;;;;;;;7.72;4.45;;;;;;;4.04;69.40;92578.88;4868560;29;20032;-73
2023/11/25 11:27:55;;;;;;;9.85;4.82;;;;;;;4.08;69.11;92574.81;4868895;29;20041;-72
2023/11/25 11:30:35;;;;;;;11.75;6.50;;;;;;;4.20;68.82;92568.47;4867521;29;20605;-76
2023/11/25 11:33:02;;;;;;;9.32;4.38;;;;;;;4.20;68.54;92548.69;4854936;29;20592;-72
2023/11/25 11:35:37;;;;;;;5.90;3.05;;;;;;;4.26;68.11;92541.41;4867193;29;20037;-72